Forside
METAR-TAF:

METAR-TAF

Lufthavne :

Dupage Airport

West Chicago, Illinois, USA

Breddekreds: 41-53-47N, længdekreds: 088-15-04W, højde: 231 m

Aktuelle vejr

Denne rapport blev lavet for 52 minutter siden, kl. 15:52 UTC
Vind 3 kt fra vestnordvest
Temperatur 25°C
Fugtighed 47%
Tryk 1020 hPa
Sigt: 16.1 km
skyfri

METAR: KDPA 031552Z 29003KT 10SM CLR 25/13 A3012 RMK AO2 SLP193 T02500133

Tid: 11:44 (16:44 UTC)

Vejrudsigter

Denne rapport blev lavet for 1 time og 45 minutter siden, kl. 14:59 UTC
Foreløbig gælder fra 03 på 15 UTC til 04 på 12 UTC
Vind 5 kt fra varierende retninger
Sigt: 10 km
Spredte skyer i en højde af 6000 ft

TAF: KDPA 031459Z 0315/0412 VRB05KT P6SM SCT060

Vejrobservationer og prognoser fra mere end 4000 lufthavne (METAR og TAF).

De gule og røde prikker repræsenterer de meteorologiske stationer.

Flyt musen over at se navnet på stationen.

Så klik over at se vejr observationer og prognoser.

At skifte det kort: Klik på de grønne knapper med et sort kors for at zoome ind; på den grønne knap med en bindestreg for at zoome ud; eller på de grønne pile for tilstødende kort.


METAR-TAF: